logo tempoitalia

Diretta Meteo Lisbona-Portela, Portogallomercoledì 15 luglio ore 06:30

Mappa
Sereno 18 °C Sereno 24 Ore: T.min 18 T.max 30
Ponente Nord/NOvest Km/h 14.8 Punto di rugiada: 14 °C Umidità: 77% Visibilità: 10 Km
Il sole sorge alle: 06:23 Il sole tramonta alle: 21:02
15 Luglio 2020 06:30 tempo osservato: Sereno Sereno 18 77 1012 vento: Nord N/NO 14.8
15 Luglio 2020 06:00 tempo osservato: Sereno Sereno 18 77 1011 vento: Nord N/NO 16.7
15 Luglio 2020 05:00 tempo osservato: Sereno Sereno 18 77 1011 vento: Nord N/NO 22.2
15 Luglio 2020 04:30 tempo osservato: Sereno Sereno 18 77 1011 vento: Nord NO 27.8
15 Luglio 2020 04:00 tempo osservato: Sereno Sereno 18 77 1011 vento: Nord NO 27.8
15 Luglio 2020 03:30 tempo osservato: Sereno Sereno 18 77 1012 vento: Nord NO 27.8
15 Luglio 2020 02:30 tempo osservato: Sereno Sereno 18 82 1012 vento: Nord NO 24
15 Luglio 2020 02:00 tempo osservato: Sereno Sereno 18 82 1012 vento: Nord O/NO 22.2
15 Luglio 2020 01:30 tempo osservato: Sereno Sereno 18 82 1012 vento: Nord O/NO 22.2
15 Luglio 2020 00:30 tempo osservato: Sereno Sereno 18 82 1013 vento: Nord N/NO 20.3
15 Luglio 2020 00:00 tempo osservato: Sereno Sereno 18 77 1013 vento: Nord N/NO 29.6
14 Luglio 2020 23:30 tempo osservato: Sereno Sereno 19 72 1013 vento: Nord N/NO 24
14 Luglio 2020 22:30 tempo osservato: Sereno Sereno 19 72 1013 vento: Nord N/NO 16.7
14 Luglio 2020 22:00 tempo osservato: Poco Nuvoloso Poco Nuvoloso 19 72 1013 vento: Nord N/NO 24
14 Luglio 2020 21:30 tempo osservato: Poco Nuvoloso Poco Nuvoloso 20 68 1013 vento: Nord N 9.3
14 Luglio 2020 21:00 tempo osservato: Poco Nuvoloso Poco Nuvoloso 20 68 1013 vento: Nord N/NO 22.2
14 Luglio 2020 20:00 tempo osservato: Sereno Sereno 22 60 1013 vento: Nord NO 27.8
14 Luglio 2020 19:30 tempo osservato: Sereno Sereno 23 49 1013 vento: Nord NO 31.5
14 Luglio 2020 19:00 tempo osservato: Sereno Sereno 24 47 1012 vento: Nord NO 27.8
14 Luglio 2020 18:30 tempo osservato: Sereno Sereno 25 44 1012 vento: Nord NO 31.5
14 Luglio 2020 18:00 tempo osservato: Sereno Sereno 26 39 1013 vento: Nord NO 29.6
14 Luglio 2020 17:00 tempo osservato: Sereno Sereno 28 34 1013 vento: Nord NO 24
14 Luglio 2020 16:30 tempo osservato: Sereno Sereno 28 37 1013 vento: Nord NO 31.5
14 Luglio 2020 16:00 tempo osservato: Sereno Sereno 28 37 1014 vento: Nord NO 27.8
14 Luglio 2020 15:30 tempo osservato: Sereno Sereno 29 39 1014 vento: Nord NO 22.2
14 Luglio 2020 15:00 tempo osservato: Sereno Sereno 29 42 1014 vento: Nord NO 27.8
14 Luglio 2020 14:30 tempo osservato: Sereno Sereno 29 42 1014 vento: Nord N/NO 29.6
14 Luglio 2020 14:00 tempo osservato: Sereno Sereno 30 40 1014 vento: Nord NO 27.8
14 Luglio 2020 13:30 tempo osservato: Sereno Sereno 29 42 1015 vento: Nord NO 24
14 Luglio 2020 12:30 tempo osservato: Sereno Sereno 29 42 1015 vento: Nord N/NO 22.2
14 Luglio 2020 12:00 tempo osservato: Sereno Sereno 28 45 1015 vento: Nord NO 20.3
14 Luglio 2020 11:30 tempo osservato: Sereno Sereno 28 48 1015 vento: Nord N/NO 18.5
14 Luglio 2020 11:00 tempo osservato: Sereno Sereno 27 50 1015 vento: Nord N 22.2
14 Luglio 2020 10:30 tempo osservato: Sereno Sereno 26 54 1015 vento: Nord N 11.1
14 Luglio 2020 10:00 tempo osservato: Sereno Sereno 25 53 1015 vento: Nord NO 24
14 Luglio 2020 09:30 tempo osservato: Sereno Sereno 24 57 1015 vento: Nord NO 20.3
14 Luglio 2020 09:00 tempo osservato: Sereno Sereno 23 60 1015 vento: Nord NO 24
14 Luglio 2020 08:30 tempo osservato: Sereno Sereno 23 56 1015 vento: Nord N/NO 20.3
14 Luglio 2020 08:00 tempo osservato: Sereno Sereno 23 60 1015 vento: Nord N/NO 16.7
14 Luglio 2020 07:30 tempo osservato: Sereno Sereno 21 68 1015 vento: Nord NO 24
14 Luglio 2020 07:00 tempo osservato: Sereno Sereno 21 68 1015 vento: Nord NO 22.2